»·PEaware :: N770SC KSBA-KLAS

N770SC :: KSBA-KLAS

FLIGHT INFORMATION

Flight Status: Arrived
Operator: Privately registered:
United States
More flights under this callsign
Pilot: Reinaldo C. (26424)
Aircraft: Unknown
(GA)
More flights by this aircraft type
Origin: KSBA Santa Barbara Mun
United States
Destination: KLAS McCarran Intl
United States
More flights between these airports :: More routes between these airports
Route: +MISHN2 NNAVY MISEN KEPEC6
File this flight plan on PilotEdge
Remarks:
Altitude:
(Current/Filed)
33,000ft
Speed:
(Current/Filed)
440kts
Departed: 14-Jan-20 01:34 PM
Arrived: 14-Jan-20 02:30 PM
Distance/Time
Traveled:
250nm/0:56
Distance/Time
To Go:
Arrived

Flight Plot

Page will automatically refresh every two minutes.


Map Options




Map Legend


Flown Route
Filed Route
Departure Airport
Arrival Airport
Navaid (VOR, NDB)
Fix

Horizontal Profiles

Position Reports

Time Latitude Longitude Heading Altitude Ground
Speed
14-Jan-20 13:08 34.432767 -119.834123 249 18ft 0kts
14-Jan-20 13:09 34.432767 -119.834123 249 18ft 0kts
14-Jan-20 13:10 34.432767 -119.834123 249 18ft 0kts
14-Jan-20 13:11 34.432767 -119.834123 249 18ft 0kts
14-Jan-20 13:12 34.432767 -119.834123 249 18ft 0kts
14-Jan-20 13:13 34.432767 -119.834123 249 18ft 0kts
14-Jan-20 13:14 34.432767 -119.834123 249 18ft 0kts
14-Jan-20 13:15 34.432767 -119.834123 249 18ft 0kts
14-Jan-20 13:16 34.432767 -119.834123 249 18ft 0kts
14-Jan-20 13:17 34.432767 -119.834123 249 18ft 0kts
14-Jan-20 13:18 34.432767 -119.834123 249 18ft 0kts
14-Jan-20 13:19 34.432767 -119.834123 249 18ft 0kts
14-Jan-20 13:20 34.432767 -119.834123 249 18ft 0kts
14-Jan-20 13:21 34.432767 -119.834123 249 18ft 0kts
14-Jan-20 13:22 34.432767 -119.834123 249 18ft 0kts
14-Jan-20 13:23 34.432767 -119.834123 249 18ft 0kts
14-Jan-20 13:24 34.432767 -119.834123 249 18ft 0kts
14-Jan-20 13:25 34.432028 -119.835295 249 18ft 11kts
14-Jan-20 13:26 34.430864 -119.839248 239 18ft 13kts
14-Jan-20 13:27 34.426942 -119.838462 194 18ft 9kts
14-Jan-20 13:28 34.426663 -119.839967 268 18ft 20kts
14-Jan-20 13:29 34.426511 -119.847612 268 18ft 21kts
14-Jan-20 13:30 34.426540 -119.853676 302 18ft 0kts
14-Jan-20 13:31 34.426544 -119.853685 302 18ft 1kts
14-Jan-20 13:32 34.427487 -119.854337 80 18ft 0kts
14-Jan-20 13:33 34.425724 -119.811886 117 2113ft 173kts
14-Jan-20 13:34 34.389478 -119.769493 144 3133ft 204kts
14-Jan-20 13:35 34.340617 -119.718267 138 6463ft 258kts
14-Jan-20 13:36 34.284728 -119.659407 138 8220ft 271kts
14-Jan-20 13:37 34.222396 -119.593922 139 10974ft 320kts
14-Jan-20 13:38 34.195680 -119.482376 86 13511ft 387kts
14-Jan-20 13:39 34.203044 -119.348448 86 17004ft 408kts
14-Jan-20 13:40 34.208343 -119.208161 86 20097ft 428kts
14-Jan-20 13:41 34.218354 -119.062123 77 22818ft 445kts
14-Jan-20 13:42 34.248048 -118.915153 75 23199ft 449kts
14-Jan-20 13:43 34.277190 -118.768359 75 24552ft 458kts
14-Jan-20 13:44 34.307526 -118.616285 76 26762ft 472kts
14-Jan-20 13:45 34.338428 -118.459718 76 28657ft 486kts
14-Jan-20 13:46 34.370092 -118.298870 76 29272ft 492kts
14-Jan-20 13:47 34.400951 -118.138178 77 29293ft 490kts
14-Jan-20 13:48 34.439242 -117.980239 65 29293ft 489kts
14-Jan-20 13:49 34.497617 -117.831656 63 29292ft 489kts
14-Jan-20 13:50 34.555506 -117.682019 64 29275ft 490kts
14-Jan-20 13:51 34.613722 -117.532341 63 29253ft 491kts
14-Jan-20 13:52 34.671594 -117.381920 64 29257ft 492kts
14-Jan-20 13:53 34.729207 -117.231226 64 29250ft 492kts
14-Jan-20 13:54 34.786761 -117.080035 63 29234ft 493kts
14-Jan-20 13:55 34.844513 -116.928132 64 29181ft 494kts
14-Jan-20 13:56 34.901685 -116.775881 64 29091ft 494kts
14-Jan-20 13:57 34.973071 -116.633416 52 29069ft 488kts
14-Jan-20 13:58 35.047050 -116.502471 53 27264ft 458kts
14-Jan-20 13:59 35.122500 -116.377598 43 24613ft 452kts
14-Jan-20 14:00 35.207922 -116.271168 41 24173ft 440kts
14-Jan-20 14:01 35.293321 -116.163860 41 22980ft 439kts
14-Jan-20 14:02 35.378143 -116.057255 40 20482ft 434kts
14-Jan-20 14:03 35.461746 -115.951958 40 17981ft 427kts
14-Jan-20 14:04 35.542675 -115.849533 41 15481ft 413kts
14-Jan-20 14:05 35.621468 -115.749013 41 13242ft 396kts
14-Jan-20 14:06 35.690982 -115.660264 40 12994ft 333kts
14-Jan-20 14:07 35.757180 -115.584934 16 12988ft 315kts
14-Jan-20 14:08 35.840875 -115.570743 355 12996ft 301kts
14-Jan-20 14:09 35.924636 -115.566164 355 12995ft 301kts
14-Jan-20 14:10 35.994714 -115.513437 65 12988ft 340kts
14-Jan-20 14:11 36.022053 -115.401800 67 12991ft 343kts
14-Jan-20 14:12 36.024764 -115.283292 96 11931ft 349kts
14-Jan-20 14:14 36.016069 -115.165753 96 10431ft 334kts
14-Jan-20 14:15 36.008874 -115.058078 96 8978ft 316kts
14-Jan-20 14:16 36.002851 -114.954388 96 7989ft 281kts
14-Jan-20 14:17 35.997210 -114.862102 96 7971ft 265kts
14-Jan-20 14:18 35.991432 -114.770203 97 7972ft 268kts
14-Jan-20 14:19 35.985270 -114.678305 97 7974ft 269kts
14-Jan-20 14:20 36.013596 -114.608964 16 7934ft 226kts
14-Jan-20 14:21 36.063244 -114.624984 291 7977ft 185kts
14-Jan-20 14:22 36.070336 -114.687484 271 7988ft 183kts
14-Jan-20 14:23 36.073789 -114.750319 266 7972ft 182kts
14-Jan-20 14:24 36.073535 -114.817470 267 6755ft 202kts
14-Jan-20 14:25 36.073878 -114.885614 268 5757ft 192kts
14-Jan-20 14:26 36.073918 -114.949448 267 4830ft 181kts
14-Jan-20 14:27 36.073812 -115.011223 267 3942ft 175kts
14-Jan-20 14:28 36.073743 -115.067511 268 3130ft 152kts
14-Jan-20 14:29 36.073652 -115.116325 270 2368ft 136kts
14-Jan-20 14:30 36.074367 -115.145122 295 2189ft 19kts

Navigation Log

Ident Type
Flight plan parsing failed, navigation log unavailable